Time;durP1;ratioP1;P1;durP2;ratioP2;P2;SDS_P1;SDS_P2;PMS_P1;PMS_P2;Temp;Humidity;BMP_temperature;BMP_pressure;BME280_temperature;BME280_humidity;BME280_pressure;Samples;Min_cycle;Max_cycle;Signal;HPM_P1;HPM_P2
2022/07/27 00:01:20;;;;;;;0.70;0.10;;;21.70;99.90;;;;;;5066377;28;20446;-67
2022/07/27 00:03:49;;;;;;;0.70;0.20;;;;;;;;;;5052206;28;20455;-66
2022/07/27 00:06:17;;;;;;;0.70;0.10;;;21.70;99.90;;;;;;5051864;28;20548;-66
2022/07/27 00:08:44;;;;;;;0.70;0.10;;;21.60;99.90;;;;;;5051779;28;20846;-66
2022/07/27 00:11:14;;;;;;;0.70;0.10;;;21.60;99.90;;;;;;5053116;28;20484;-66
2022/07/27 00:13:43;;;;;;;0.70;0.10;;;21.60;99.90;;;;;;5071700;28;20581;-64
2022/07/27 00:16:11;;;;;;;0.70;0.20;;;21.60;99.90;;;;;;5071610;28;20450;-66
2022/07/27 00:18:39;;;;;;;0.70;0.20;;;21.50;99.90;;;;;;5071785;28;20446;-68
2022/07/27 00:21:08;;;;;;;0.70;0.10;;;21.50;99.90;;;;;;5065391;28;20453;-65
2022/07/27 00:23:35;;;;;;;0.70;0.10;;;21.40;99.90;;;;;;5052015;28;20474;-64
2022/07/27 00:26:03;;;;;;;0.70;0.10;;;21.30;99.90;;;;;;5052047;28;20541;-65
2022/07/27 00:28:33;;;;;;;0.70;0.10;;;21.30;99.90;;;;;;5043503;28;20474;-66
2022/07/27 00:31:01;;;;;;;0.70;0.10;;;21.30;99.90;;;;;;5041585;28;20452;-67
2022/07/27 00:33:29;;;;;;;0.70;0.17;;;21.20;99.90;;;;;;5071676;28;20473;-66
2022/07/27 00:35:57;;;;;;;0.70;0.10;;;21.20;99.90;;;;;;5071277;28;20612;-67
2022/07/27 00:38:25;;;;;;;0.70;0.10;;;21.20;99.90;;;;;;5071900;28;20444;-67
2022/07/27 00:40:53;;;;;;;0.70;0.10;;;21.10;99.90;;;;;;5065932;28;20458;-66
2022/07/27 00:43:21;;;;;;;0.70;0.20;;;21.10;99.90;;;;;;5052007;28;20466;-67
2022/07/27 00:45:50;;;;;;;0.70;0.20;;;21.10;99.90;;;;;;5051497;28;20968;-65
2022/07/27 00:48:18;;;;;;;0.70;0.10;;;21.00;99.90;;;;;;5051148;28;20439;-66
2022/07/27 00:50:47;;;;;;;0.70;0.10;;;21.00;99.90;;;;;;5056061;28;20822;-66
2022/07/27 00:53:15;;;;;;;0.70;0.10;;;21.00;99.90;;;;;;5071310;28;21017;-66
2022/07/27 00:55:44;;;;;;;0.70;0.30;;;21.00;99.90;;;;;;5071284;28;20468;-66
2022/07/27 00:58:12;;;;;;;0.70;0.10;;;21.00;99.90;;;;;;5071126;28;20442;-66
2022/07/27 01:00:40;;;;;;;0.70;0.10;;;20.90;99.90;;;;;;5067542;28;20443;-66
2022/07/27 01:03:10;;;;;;;0.70;0.10;;;;;;;;;;5055295;28;20489;-66
2022/07/27 01:05:39;;;;;;;0.70;0.13;;;20.80;99.90;;;;;;5047865;28;20847;-66
2022/07/27 01:08:12;;;;;;;0.70;0.10;;;20.80;99.90;;;;;;5055182;28;20446;-67
2022/07/27 01:10:41;;;;;;;0.70;0.20;;;20.80;99.90;;;;;;5060605;28;20820;-66
2022/07/27 01:13:09;;;;;;;0.70;0.10;;;20.80;99.90;;;;;;5075292;28;20837;-65
2022/07/27 01:15:40;;;;;;;0.70;0.10;;;20.80;99.90;;;;;;5074500;28;20480;-66
2022/07/27 01:18:12;;;;;;;0.70;0.10;;;20.80;99.90;;;;;;5074855;28;20491;-65
2022/07/27 01:20:41;;;;;;;0.70;0.20;;;20.80;99.90;;;;;;5056950;28;20471;-69
2022/07/27 01:23:10;;;;;;;0.70;0.10;;;20.80;99.90;;;;;;5052510;28;20462;-67
2022/07/27 01:25:41;;;;;;;0.70;0.20;;;20.80;99.90;;;;;;5044498;28;20532;-66
2022/07/27 01:28:09;;;;;;;0.70;0.10;;;20.70;99.90;;;;;;5052854;28;20445;-65
2022/07/27 01:30:37;;;;;;;0.70;0.10;;;20.70;99.90;;;;;;5058668;28;20926;-67
2022/07/27 01:33:07;;;;;;;0.70;0.20;;;20.60;99.90;;;;;;5074614;28;20464;-65
2022/07/27 01:35:36;;;;;;;0.70;0.10;;;20.60;99.90;;;;;;5074426;28;20479;-67
2022/07/27 01:38:04;;;;;;;0.70;0.20;;;20.50;99.90;;;;;;5074074;28;20449;-65
2022/07/27 01:40:35;;;;;;;0.70;0.17;;;16.10;99.90;;;;;;5067536;28;20855;-65
2022/07/27 01:43:03;;;;;;;0.70;0.20;;;20.40;99.90;;;;;;5054555;28;20497;-67
2022/07/27 01:45:31;;;;;;;0.70;0.20;;;20.40;99.90;;;;;;5056103;28;20453;-67
2022/07/27 01:47:59;;;;;;;0.70;0.20;;;20.40;99.90;;;;;;5055685;28;20466;-65
2022/07/27 01:50:28;;;;;;;0.67;0.20;;;20.40;99.90;;;;;;5060121;28;20449;-66
2022/07/27 01:52:56;;;;;;;0.70;0.10;;;20.30;99.90;;;;;;5074245;28;20470;-65
2022/07/27 01:55:24;;;;;;;0.70;0.10;;;20.30;99.90;;;;;;5074404;28;20485;-65
2022/07/27 01:57:53;;;;;;;0.70;0.20;;;20.30;99.90;;;;;;5074540;28;20437;-65
2022/07/27 02:00:21;;;;;;;0.70;0.10;;;20.30;99.90;;;;;;5069401;28;20486;-66
2022/07/27 02:02:49;;;;;;;0.70;0.20;;;20.40;99.90;;;;;;5054086;28;20476;-65
2022/07/27 02:05:17;;;;;;;0.70;0.10;;;20.30;99.90;;;;;;5054051;28;20449;-67
2022/07/27 02:07:45;;;;;;;0.70;0.10;;;20.30;99.90;;;;;;5053447;28;20445;-65
2022/07/27 02:10:13;;;;;;;0.70;0.10;;;20.30;99.90;;;;;;5056094;28;20938;-65
2022/07/27 02:12:39;;;;;;;0.70;0.10;;;20.30;99.90;;;;;;5065995;28;20477;-65
2022/07/27 02:15:11;;;;;;;0.70;0.20;;;20.20;99.90;;;;;;5053724;28;20485;-66
2022/07/27 02:17:42;;;;;;;0.70;0.10;;;20.20;99.90;;;;;;5053642;28;20700;-64
2022/07/27 02:20:13;;;;;;;0.70;0.20;;;20.20;99.90;;;;;;5053592;28;20454;-65
2022/07/27 02:22:41;;;;;;;0.70;0.20;;;20.20;99.90;;;;;;5060283;28;20560;-66
2022/07/27 02:25:10;;;;;;;0.70;0.10;;;20.20;99.90;;;;;;5073705;28;20524;-65
2022/07/27 02:27:38;;;;;;;0.70;0.20;;;20.10;99.90;;;;;;5071925;28;20454;-66
2022/07/27 02:30:09;;;;;;;0.70;0.10;;;20.20;99.90;;;;;;5053483;28;20870;-65
2022/07/27 02:32:37;;;;;;;0.70;0.10;;;20.10;99.90;;;;;;5059231;28;20476;-64
2022/07/27 02:35:05;;;;;;;1.50;1.40;;;20.10;99.90;;;;;;5073503;28;20534;-66
2022/07/27 02:37:47;;;;;;;0.70;0.10;;;20.10;99.90;;;;;;5073487;28;20499;-66
2022/07/27 02:40:16;;;;;;;0.70;0.20;;;20.00;99.90;;;;;;5073729;28;20537;-66
2022/07/27 02:42:44;;;;;;;0.70;0.10;;;20.00;99.90;;;;;;5066250;28;20565;-66
2022/07/27 02:45:15;;;;;;;0.70;0.10;;;20.00;99.90;;;;;;5053495;28;20753;-65
2022/07/27 02:47:42;;;;;;;0.60;0.10;;;20.00;99.90;;;;;;5053155;28;20844;-65
2022/07/27 02:50:11;;;;;;;0.70;0.10;;;20.00;99.90;;;;;;5053260;28;20454;-65
2022/07/27 02:52:39;;;;;;;0.70;0.20;;;19.90;99.90;;;;;;5053737;28;20879;-66
2022/07/27 02:55:08;;;;;;;0.70;0.20;;;19.90;99.90;;;;;;5053458;28;20482;-66
2022/07/27 02:57:39;;;;;;;0.70;0.20;;;19.80;99.90;;;;;;5053353;28;20447;-67
2022/07/27 03:00:10;;;;;;;0.63;0.20;;;19.80;99.90;;;;;;5054716;28;20516;-67
2022/07/27 03:02:40;;;;;;;0.60;0.10;;;19.80;99.90;;;;;;5059259;28;20472;-67
2022/07/27 03:05:10;;;;;;;0.60;0.10;;;19.70;99.90;;;;;;5073544;28;20441;-66
2022/07/27 03:07:38;;;;;;;0.70;0.20;;;19.70;99.90;;;;;;5073415;28;20445;-66
2022/07/27 03:10:07;;;;;;;0.80;0.30;;;19.70;99.90;;;;;;5073883;28;20442;-66
2022/07/27 03:12:35;;;;;;;0.70;0.20;;;19.60;99.90;;;;;;5071786;28;20481;-69
2022/07/27 03:15:04;;;;;;;0.60;0.10;;;19.60;99.90;;;;;;5072985;28;20473;-64
2022/07/27 03:17:32;;;;;;;0.67;0.10;;;19.60;99.90;;;;;;5072960;28;20442;-66
2022/07/27 03:20:02;;;;;;;0.60;0.17;;;19.60;99.90;;;;;;5073475;28;20446;-65
2022/07/27 03:22:31;;;;;;;0.60;0.10;;;19.60;99.90;;;;;;5068101;28;20467;-66
2022/07/27 03:24:59;;;;;;;0.63;0.20;;;19.60;99.90;;;;;;5052276;28;20496;-66
2022/07/27 03:27:27;;;;;;;0.60;0.10;;;19.60;99.90;;;;;;5052361;28;20453;-65
2022/07/27 03:29:56;;;;;;;0.70;0.10;;;19.60;99.90;;;;;;5032629;28;20522;-64
2022/07/27 03:32:24;;;;;;;0.60;0.10;;;19.60;99.90;;;;;;5037891;28;20915;-65
2022/07/27 03:34:52;;;;;;;0.60;0.20;;;19.50;99.90;;;;;;5071997;28;20962;-65
2022/07/27 03:37:21;;;;;;;0.60;0.20;;;;;;;;;;5071756;28;20448;-65
2022/07/27 03:39:49;;;;;;;0.60;0.20;;;19.50;99.90;;;;;;5072388;28;20438;-65
2022/07/27 03:42:17;;;;;;;0.63;0.17;;;19.60;99.90;;;;;;5052477;28;20473;-66
2022/07/27 03:44:45;;;;;;;0.60;0.10;;;19.60;99.90;;;;;;5052012;28;20446;-66
2022/07/27 03:47:13;;;;;;;0.60;0.10;;;19.50;99.90;;;;;;5051891;28;20454;-66
2022/07/27 03:49:41;;;;;;;0.70;0.20;;;19.50;99.90;;;;;;5051729;28;20465;-66
2022/07/27 03:52:09;;;;;;;0.60;0.17;;;19.50;99.90;;;;;;5068672;28;20473;-67
2022/07/27 03:54:45;;;;;;;0.70;0.20;;;19.40;99.90;;;;;;5072061;28;20491;-65
2022/07/27 03:57:13;;;;;;;0.63;0.20;;;19.40;99.90;;;;;;5071739;28;20480;-65
2022/07/27 03:59:41;;;;;;;0.60;0.20;;;19.40;99.90;;;;;;5072269;28;20492;-66
2022/07/27 04:02:09;;;;;;;0.60;0.10;;;19.40;99.90;;;;;;5054466;28;20466;-66
2022/07/27 04:04:37;;;;;;;0.70;0.20;;;19.40;99.90;;;;;;5052098;28;20442;-66
2022/07/27 04:07:05;;;;;;;0.60;0.20;;;19.40;99.90;;;;;;5052176;28;20438;-67
2022/07/27 04:09:34;;;;;;;0.60;0.20;;;19.40;99.90;;;;;;5051893;28;20448;-66
2022/07/27 04:12:04;;;;;;;0.70;0.10;;;19.30;99.90;;;;;;5067569;28;20472;-66
2022/07/27 04:14:32;;;;;;;0.60;0.10;;;19.30;99.90;;;;;;5071666;28;20433;-66
2022/07/27 04:17:00;;;;;;;0.70;0.30;;;19.30;99.90;;;;;;5071513;28;20477;-66
2022/07/27 04:19:28;;;;;;;0.60;0.10;;;19.20;99.90;;;;;;5071857;28;20487;-65
2022/07/27 04:21:57;;;;;;;0.60;0.10;;;19.20;99.90;;;;;;5057007;28;20443;-65
2022/07/27 04:24:25;;;;;;;0.60;0.10;;;19.20;99.90;;;;;;5051639;28;20453;-65
2022/07/27 04:26:52;;;;;;;0.60;0.10;;;19.20;99.90;;;;;;5051339;28;20449;-65
2022/07/27 04:29:22;;;;;;;0.60;0.10;;;19.20;99.90;;;;;;5036047;28;20526;-67
2022/07/27 04:31:51;;;;;;;0.60;0.20;;;19.10;99.90;;;;;;5044540;28;20483;-67
2022/07/27 04:34:25;;;;;;;0.60;0.20;;;;;;;;;;5049849;28;20654;-71
2022/07/27 04:36:53;;;;;;;0.60;0.10;;;19.00;99.90;;;;;;5050262;28;20474;-70
2022/07/27 04:39:21;;;;;;;0.70;0.20;;;19.00;99.90;;;;;;5049155;28;20458;-71
2022/07/27 04:41:49;;;;;;;0.60;0.20;;;19.00;99.90;;;;;;5071433;28;20456;-70
2022/07/27 04:44:17;;;;;;;0.70;0.20;;;19.00;99.90;;;;;;5079221;28;20445;-74
2022/07/27 04:46:46;;;;;;;0.60;0.20;;;19.00;99.90;;;;;;5062246;28;20447;-73
2022/07/27 04:49:14;;;;;;;3.53;3.07;;;19.00;99.90;;;;;;5054747;28;20459;-73
2022/07/27 04:51:44;;;;;;;0.60;0.10;;;19.00;99.90;;;;;;5069223;28;20441;-73
2022/07/27 04:54:12;;;;;;;4.47;4.23;;;19.00;99.90;;;;;;5076012;28;20437;-74
2022/07/27 04:56:40;;;;;;;0.60;0.20;;;19.00;99.90;;;;;;5076408;28;20484;-75
2022/07/27 04:59:08;;;;;;;0.60;0.10;;;19.00;99.90;;;;;;5076415;28;20455;-74
2022/07/27 05:14:46;;;;;;;0.70;0.40;;;19.20;99.90;;;;;;5111484;27;20679;-75
2022/07/27 05:17:14;;;;;;;0.60;0.20;;;19.00;99.90;;;;;;5114027;28;20444;-75
2022/07/27 05:19:42;;;;;;;0.60;0.10;;;;;;;;;;5112484;28;20483;-76
2022/07/27 05:22:10;;;;;;;0.60;0.10;;;19.00;99.90;;;;;;5107618;28;20484;-75
2022/07/27 05:24:38;;;;;;;0.60;0.10;;;18.90;99.90;;;;;;5091523;28;20447;-74
2022/07/27 05:27:06;;;;;;;0.60;0.20;;;19.00;99.90;;;;;;5012756;28;20460;-76
2022/07/27 05:29:34;;;;;;;0.60;0.10;;;19.00;99.90;;;;;;5012125;28;20448;-75
2022/07/27 05:32:04;;;;;;;0.60;0.20;;;;;;;;;;5008381;28;20468;-75
2022/07/27 05:34:32;;;;;;;0.60;0.10;;;19.10;99.90;;;;;;5010516;28;20445;-75
2022/07/27 05:37:00;;;;;;;0.60;0.20;;;19.00;99.90;;;;;;5010706;28;20441;-75
2022/07/27 05:39:28;;;;;;;0.60;0.20;;;19.10;99.90;;;;;;5010226;28;20980;-75
2022/07/27 05:41:56;;;;;;;1.00;0.37;;;19.10;99.90;;;;;;5002087;28;20484;-76
2022/07/27 05:44:24;;;;;;;0.80;0.50;;;19.10;99.90;;;;;;5008982;28;20488;-74
2022/07/27 05:46:52;;;;;;;0.60;0.10;;;19.10;99.90;;;;;;5008435;28;20452;-72
2022/07/27 05:49:21;;;;;;;0.60;0.20;;;19.10;99.90;;;;;;5008088;28;20630;-72
2022/07/27 05:51:49;;;;;;;0.60;0.10;;;19.10;99.90;;;;;;5008325;28;20456;-72
2022/07/27 05:54:18;;;;;;;0.60;0.13;;;19.10;99.90;;;;;;5009229;28;20433;-72
2022/07/27 05:56:46;;;;;;;0.60;0.17;;;19.10;99.90;;;;;;5008957;28;20807;-73
2022/07/27 05:59:14;;;;;;;0.60;0.10;;;;;;;;;;5008779;28;20468;-73
2022/07/27 06:01:42;;;;;;;0.60;0.10;;;19.10;99.90;;;;;;5007370;28;20543;-73
2022/07/27 06:04:10;;;;;;;0.60;0.20;;;19.10;99.90;;;;;;5008842;28;20905;-73
2022/07/27 06:09:28;;;;;;;0.60;0.20;;;19.20;99.90;;;;;;5008644;28;20456;-71
2022/07/27 06:11:56;;;;;;;0.60;0.17;;;19.30;99.90;;;;;;5008343;28;20457;-71
2022/07/27 06:14:24;;;;;;;0.70;0.20;;;19.20;99.90;;;;;;5002066;28;20468;-70
2022/07/27 06:16:52;;;;;;;0.60;0.20;;;19.20;99.90;;;;;;4995571;28;20984;-71
2022/07/27 06:19:20;;;;;;;0.60;0.17;;;19.20;99.90;;;;;;4995309;28;20974;-72
2022/07/27 06:21:49;;;;;;;0.60;0.20;;;19.20;99.90;;;;;;4994762;28;20464;-71
2022/07/27 06:24:21;;;;;;;0.60;0.20;;;19.20;99.90;;;;;;4995088;28;20834;-71
2022/07/27 06:26:49;;;;;;;0.60;0.20;;;19.20;99.90;;;;;;4995275;28;20559;-73
2022/07/27 06:29:17;;;;;;;0.60;0.20;;;19.20;99.90;;;;;;4995553;28;20824;-72
2022/07/27 06:31:45;;;;;;;0.60;0.20;;;19.40;99.90;;;;;;4994933;28;20453;-71
2022/07/27 06:34:13;;;;;;;0.67;0.30;;;19.40;99.90;;;;;;4994455;28;20442;-74
2022/07/27 06:36:43;;;;;;;0.70;0.33;;;19.50;99.90;;;;;;4994808;28;20450;-73
2022/07/27 06:39:13;;;;;;;0.83;0.30;;;;;;;;;;4995203;28;20445;-69
2022/07/27 06:41:42;;;;;;;0.60;0.10;;;19.60;99.90;;;;;;4994990;28;20453;-72
2022/07/27 06:44:09;;;;;;;0.60;0.20;;;19.60;99.90;;;;;;4994635;28;20912;-71
2022/07/27 06:46:37;;;;;;;0.60;0.10;;;19.60;99.90;;;;;;4994330;28;20444;-72
2022/07/27 06:49:05;;;;;;;0.70;0.20;;;19.60;99.90;;;;;;4990375;28;20461;-72
2022/07/27 06:51:33;;;;;;;0.60;0.10;;;19.50;99.90;;;;;;4991822;28;20954;-72
2022/07/27 06:54:04;;;;;;;0.70;0.20;;;19.50;99.90;;;;;;4992782;28;20508;-72
2022/07/27 06:56:33;;;;;;;0.60;0.20;;;19.50;99.90;;;;;;4990423;28;20437;-73
2022/07/27 06:59:01;;;;;;;0.60;0.20;;;19.50;99.90;;;;;;4992728;28;20437;-73
2022/07/27 07:01:29;;;;;;;0.60;0.20;;;19.50;99.90;;;;;;4992509;28;20449;-71
2022/07/27 07:03:58;;;;;;;0.60;0.20;;;;;;;;;;4994188;28;20481;-71
2022/07/27 07:06:26;;;;;;;0.60;0.20;;;19.60;99.90;;;;;;4993855;28;20446;-73
2022/07/27 07:08:54;;;;;;;0.60;0.20;;;19.60;99.90;;;;;;4993892;28;20447;-71
2022/07/27 07:11:22;;;;;;;0.80;0.63;;;;;;;;;;4993715;28;20484;-72
2022/07/27 07:13:52;;;;;;;0.60;0.10;;;19.70;99.90;;;;;;4993221;28;20465;-73
2022/07/27 07:16:20;;;;;;;0.60;0.20;;;19.70;99.90;;;;;;4993536;28;20449;-72
2022/07/27 07:18:48;;;;;;;0.60;0.10;;;19.70;99.90;;;;;;4993807;28;20469;-70
2022/07/27 07:21:19;;;;;;;0.60;0.20;;;19.70;99.90;;;;;;4993722;28;20477;-72
2022/07/27 07:23:47;;;;;;;0.60;0.10;;;19.70;99.90;;;;;;4994059;28;20978;-73
2022/07/27 07:26:15;;;;;;;0.60;0.10;;;19.70;99.90;;;;;;4993260;28;20462;-72
2022/07/27 07:28:43;;;;;;;0.60;0.20;;;19.70;99.90;;;;;;4994361;28;20904;-71
2022/07/27 07:31:19;;;;;;;0.60;0.20;;;19.70;99.90;;;;;;4993798;28;20453;-71
2022/07/27 07:33:50;;;;;;;0.60;0.20;;;19.70;99.90;;;;;;4996537;28;20472;-73
2022/07/27 07:36:18;;;;;;;0.60;0.10;;;19.80;99.90;;;;;;4999003;28;20528;-73
2022/07/27 07:38:51;;;;;;;1.67;0.30;;;19.90;99.90;;;;;;4996125;28;20771;-72
2022/07/27 07:41:24;;;;;;;0.70;0.60;;;;;;;;;;4993866;28;20472;-71
2022/07/27 07:43:57;;;;;;;0.60;0.10;;;20.00;99.90;;;;;;4993602;28;20485;-73
2022/07/27 07:46:28;;;;;;;0.80;0.53;;;20.00;99.90;;;;;;4993177;28;20939;-72
2022/07/27 07:49:03;;;;;;;0.60;0.10;;;20.10;99.90;;;;;;4994152;28;20464;-72
2022/07/27 07:51:31;;;;;;;5.83;1.07;;;20.10;99.90;;;;;;4993254;28;20513;-71
2022/07/27 07:53:59;;;;;;;0.60;0.10;;;20.10;99.90;;;;;;4993497;28;20535;-74
2022/07/27 07:56:27;;;;;;;0.63;0.20;;;20.10;99.90;;;;;;4993478;28;20514;-72
2022/07/27 07:58:55;;;;;;;0.60;0.10;;;20.20;99.90;;;;;;4993416;28;20540;-73
2022/07/27 08:01:24;;;;;;;0.60;0.17;;;20.20;99.90;;;;;;4993020;28;20790;-72
2022/07/27 08:03:54;;;;;;;0.70;0.20;;;20.20;99.90;;;;;;4993552;28;20548;-71
2022/07/27 08:06:22;;;;;;;2.33;0.60;;;20.20;99.90;;;;;;4993497;28;20456;-71
2022/07/27 08:08:50;;;;;;;0.60;0.10;;;20.20;99.90;;;;;;4999035;28;20446;-72
2022/07/27 08:11:18;;;;;;;0.70;0.30;;;20.20;99.90;;;;;;5001328;28;20476;-70
2022/07/27 08:13:46;;;;;;;0.70;0.10;;;20.20;99.90;;;;;;4992745;28;20562;-70
2022/07/27 08:16:14;;;;;;;0.70;0.10;;;20.30;99.90;;;;;;4992315;28;21177;-71
2022/07/27 08:18:42;;;;;;;0.70;0.20;;;18.50;99.90;;;;;;4991583;28;20468;-70
2022/07/27 08:21:11;;;;;;;0.70;0.10;;;20.30;99.90;;;;;;4996996;28;20942;-72
2022/07/27 08:23:39;;;;;;;1.00;0.40;;;20.30;99.90;;;;;;4996657;28;20473;-71
2022/07/27 08:26:06;;;;;;;0.70;0.20;;;20.40;99.90;;;;;;4993546;28;20461;-71
2022/07/27 08:28:35;;;;;;;0.60;0.10;;;20.40;99.90;;;;;;4987527;28;20445;-71
2022/07/27 08:31:04;;;;;;;0.60;0.20;;;20.30;99.90;;;;;;4993525;28;20488;-71
2022/07/27 08:33:41;;;;;;;0.70;0.20;;;;;;;;;;4974506;28;20477;-70
2022/07/27 08:36:11;;;;;;;0.60;0.20;;;20.40;99.90;;;;;;4982262;28;20464;-72
2022/07/27 08:38:39;;;;;;;0.70;0.20;;;20.50;99.90;;;;;;4993150;28;20457;-70
2022/07/27 08:41:07;;;;;;;0.70;0.20;;;20.60;99.90;;;;;;4993064;28;20449;-71
2022/07/27 08:43:36;;;;;;;0.70;0.20;;;20.60;99.90;;;;;;4993137;28;20474;-69
2022/07/27 08:46:04;;;;;;;0.70;0.10;;;20.60;99.90;;;;;;4992628;28;20480;-70
2022/07/27 08:48:32;;;;;;;0.70;0.10;;;20.70;99.90;;;;;;4992445;28;20453;-74
2022/07/27 08:51:00;;;;;;;0.70;0.10;;;20.80;99.90;;;;;;4991346;28;20521;-74
2022/07/27 08:53:32;;;;;;;0.70;0.20;;;20.80;99.90;;;;;;4995223;28;20457;-78
2022/07/27 08:56:20;;;;;;;0.70;0.10;;;20.80;99.90;;;;;;5003702;28;20448;-79
2022/07/27 08:58:48;;;;;;;0.70;0.10;;;20.90;99.90;;;;;;5006575;28;20521;-79
2022/07/27 09:01:16;;;;;;;0.70;0.17;;;20.90;99.90;;;;;;5007710;28;20934;-80
2022/07/27 09:03:44;;;;;;;0.70;0.10;;;20.90;99.90;;;;;;5006705;28;20469;-79
2022/07/27 09:06:12;;;;;;;0.70;0.20;;;20.90;99.90;;;;;;4998597;28;20477;-79
2022/07/27 09:08:44;;;;;;;0.70;0.20;;;20.90;99.90;;;;;;5002265;28;20457;-79
2022/07/27 09:11:19;;;;;;;0.70;0.10;;;20.90;99.90;;;;;;4998629;28;20536;-79
2022/07/27 09:13:47;;;;;;;1.77;0.40;;;21.00;99.90;;;;;;5000628;28;20855;-80
2022/07/27 09:16:15;;;;;;;0.70;0.20;;;21.10;99.90;;;;;;4998444;28;21028;-79
2022/07/27 09:18:47;;;;;;;0.70;0.10;;;;;;;;;;4999222;28;20445;-80
2022/07/27 09:21:16;;;;;;;0.70;0.10;;;;;;;;;;5002307;28;20472;-80
2022/07/27 09:23:53;;;;;;;0.70;0.30;;;21.30;99.90;;;;;;5002463;28;20532;-77
2022/07/27 09:26:23;;;;;;;0.70;0.10;;;21.30;99.90;;;;;;4999279;28;20563;-81
2022/07/27 09:29:02;;;;;;;0.70;0.10;;;21.30;99.90;;;;;;4997259;28;20471;-82
2022/07/27 09:31:32;;;;;;;0.70;0.20;;;21.40;99.90;;;;;;4992432;28;20503;-77
2022/07/27 09:34:02;;;;;;;0.70;0.10;;;21.50;99.90;;;;;;4992297;28;20469;-75
2022/07/27 09:36:30;;;;;;;0.70;0.10;;;21.60;99.90;;;;;;4990833;28;20441;-75
2022/07/27 09:39:04;;;;;;;0.70;0.10;;;21.60;99.90;;;;;;4991931;28;20449;-70
2022/07/27 09:41:43;;;;;;;0.70;0.10;;;21.70;99.90;;;;;;4992042;28;20950;-69
2022/07/27 09:44:13;;;;;;;0.70;0.10;;;21.70;99.90;;;;;;4991890;28;20445;-72
2022/07/27 09:46:59;;;;;;;0.70;0.10;;;21.80;99.90;;;;;;4991495;28;20438;-72
2022/07/27 09:49:30;;;;;;;0.70;0.10;;;21.70;99.90;;;;;;4993891;28;20449;-69
2022/07/27 09:51:59;;;;;;;0.70;0.20;;;21.80;99.90;;;;;;4996725;28;20472;-69
2022/07/27 09:54:42;;;;;;;0.70;0.20;;;21.80;99.90;;;;;;4997000;28;20457;-69
2022/07/27 09:57:10;;;;;;;0.70;0.10;;;21.90;99.90;;;;;;4995908;28;20966;-70
2022/07/27 09:59:37;;;;;;;0.70;0.10;;;21.80;99.90;;;;;;4995400;28;20453;-71
2022/07/27 10:02:05;;;;;;;0.70;0.10;;;21.80;99.90;;;;;;4996509;28;20461;-72
2022/07/27 10:04:33;;;;;;;0.70;0.10;;;21.90;99.90;;;;;;4995307;28;20445;-72
2022/07/27 10:07:02;;;;;;;0.70;0.20;;;21.90;99.90;;;;;;4994274;28;20492;-72
2022/07/27 10:09:37;;;;;;;0.70;0.20;;;21.90;99.90;;;;;;4987596;28;20440;-71
2022/07/27 10:12:06;;;;;;;0.70;0.10;;;22.00;99.90;;;;;;4994773;28;20461;-70
2022/07/27 10:14:35;;;;;;;0.70;0.27;;;22.00;99.90;;;;;;4993674;28;20537;-70
2022/07/27 10:17:03;;;;;;;0.80;0.20;;;22.10;99.90;;;;;;4994602;28;20463;-71
2022/07/27 10:19:43;;;;;;;0.80;0.37;;;22.20;99.90;;;;;;4995145;28;20444;-72
2022/07/27 10:22:11;;;;;;;0.70;0.20;;;22.20;99.90;;;;;;4995259;28;20638;-73
2022/07/27 10:24:41;;;;;;;0.70;0.10;;;22.20;99.90;;;;;;4995484;28;20447;-73
2022/07/27 10:27:20;;;;;;;0.70;0.20;;;22.40;99.90;;;;;;4995241;28;20954;-73
2022/07/27 10:29:48;;;;;;;0.70;0.13;;;22.60;99.90;;;;;;4994903;28;20960;-72
2022/07/27 10:32:23;;;;;;;0.70;0.20;;;22.70;99.90;;;;;;4992692;28;20458;-72
2022/07/27 10:34:52;;;;;;;0.70;0.10;;;22.70;99.90;;;;;;4994431;28;20840;-73
2022/07/27 10:37:25;;;;;;;0.70;0.10;;;22.70;99.90;;;;;;4999941;28;20484;-73
2022/07/27 10:42:39;;;;;;;0.70;0.10;;;22.60;99.90;;;;;;4989210;28;20512;-74
2022/07/27 10:45:09;;;;;;;0.70;0.13;;;22.50;99.90;;;;;;4995384;28;20452;-76
2022/07/27 10:47:41;;;;;;;0.70;0.10;;;22.50;99.90;;;;;;4995709;28;20457;-72
2022/07/27 10:50:28;;;;;;;0.70;0.10;;;22.60;99.90;;;;;;4995074;28;20966;-73
2022/07/27 10:52:58;;;;;;;0.70;0.20;;;22.70;99.90;;;;;;4995050;28;20465;-70
2022/07/27 10:55:50;;;;;;;0.70;0.20;;;22.90;99.90;;;;;;4994329;28;20952;-73
2022/07/27 10:58:43;;;;;;;0.70;0.10;;;22.90;99.90;;;;;;4975284;28;20442;-72
2022/07/27 11:01:12;;;;;;;0.70;0.20;;;23.00;99.90;;;;;;4977600;28;20454;-73
2022/07/27 11:03:51;;;;;;;0.70;0.20;;;23.20;99.90;;;;;;4994117;28;20461;-72
2022/07/27 11:06:29;;;;;;;0.70;0.20;;;23.20;99.90;;;;;;4994232;28;20985;-73
2022/07/27 11:09:14;;;;;;;0.70;0.20;;;23.30;99.90;;;;;;4994056;28;20449;-68
2022/07/27 11:12:05;;;;;;;0.70;0.10;;;23.50;99.90;;;;;;4992529;28;20524;-70
2022/07/27 11:14:44;;;;;;;0.70;0.20;;;23.50;99.90;;;;;;4992906;28;21002;-69
2022/07/27 11:17:13;;;;;;;1.27;0.33;;;23.50;99.90;;;;;;4994175;28;20453;-68
2022/07/27 11:20:02;;;;;;;0.70;0.10;;;23.30;99.90;;;;;;4993266;28;20464;-69
2022/07/27 11:22:31;;;;;;;0.70;0.10;;;23.30;99.90;;;;;;4993031;28;20500;-69
2022/07/27 11:25:19;;;;;;;0.70;0.10;;;23.30;99.90;;;;;;4995064;28;20492;-68
2022/07/27 11:27:50;;;;;;;0.70;0.17;;;23.40;99.90;;;;;;4994939;28;20451;-69
2022/07/27 11:30:23;;;;;;;0.70;0.30;;;23.50;99.90;;;;;;4994951;28;20452;-70
2022/07/27 11:32:51;;;;;;;0.70;0.10;;;23.80;99.90;;;;;;4993570;28;21016;-69
2022/07/27 11:35:19;;;;;;;0.70;0.20;;;23.80;99.90;;;;;;4993315;28;20542;-69
2022/07/27 11:37:58;;;;;;;0.70;0.10;;;23.90;99.90;;;;;;4993312;28;20445;-68
2022/07/27 11:40:26;;;;;;;0.70;0.10;;;23.90;99.90;;;;;;4993035;28;20439;-68
2022/07/27 11:43:34;;;;;;;0.70;0.10;;;24.00;99.90;;;;;;4991025;28;20460;-70
2022/07/27 11:46:12;;;;;;;0.70;0.10;;;24.00;99.90;;;;;;4993738;28;20483;-70
2022/07/27 11:48:46;;;;;;;0.70;0.10;;;24.20;99.90;;;;;;4978094;28;20540;-69
2022/07/27 11:51:34;;;;;;;0.70;0.20;;;24.30;99.90;;;;;;4992492;28;20437;-69
2022/07/27 11:54:04;;;;;;;0.70;0.20;;;24.40;99.90;;;;;;4992037;28;20476;-69
2022/07/27 11:56:33;;;;;;;0.70;0.10;;;24.50;99.90;;;;;;4993431;28;20445;-69
2022/07/27 11:59:10;;;;;;;0.80;0.40;;;24.40;99.90;;;;;;4993389;28;20950;-69
2022/07/27 12:01:41;;;;;;;0.70;0.10;;;24.20;99.90;;;;;;4994493;28;20452;-68
2022/07/27 12:04:21;;;;;;;0.70;0.10;;;24.20;99.90;;;;;;4994062;28;20449;-69
2022/07/27 12:06:59;;;;;;;0.70;0.20;;;24.10;99.90;;;;;;4993286;28;20480;-68
2022/07/27 12:09:28;;;;;;;0.70;0.20;;;24.00;99.90;;;;;;4993351;28;20938;-69
2022/07/27 12:12:13;;;;;;;0.70;0.20;;;24.20;99.90;;;;;;4993333;28;20823;-69
2022/07/27 12:14:45;;;;;;;0.70;0.10;;;24.20;99.90;;;;;;4992410;28;20511;-69
2022/07/27 12:17:25;;;;;;;0.70;0.10;;;24.50;99.90;;;;;;4991195;28;20465;-70
2022/07/27 12:20:00;;;;;;;0.70;0.17;;;24.70;99.90;;;;;;4991456;28;20925;-69
2022/07/27 12:22:31;;;;;;;0.70;0.20;;;24.80;99.90;;;;;;4993149;28;20471;-67
2022/07/27 12:25:00;;;;;;;0.70;0.10;;;24.80;99.90;;;;;;4992699;28;20449;-70
2022/07/27 12:27:29;;;;;;;0.70;0.20;;;24.80;99.90;;;;;;4991520;28;20531;-69
2022/07/27 12:30:05;;;;;;;0.70;0.20;;;24.70;99.90;;;;;;4993423;28;20833;-69
2022/07/27 12:32:36;;;;;;;0.70;0.20;;;24.50;99.90;;;;;;4992944;28;20472;-67
2022/07/27 12:35:20;;;;;;;0.70;0.20;;;24.30;99.90;;;;;;4992923;28;20488;-70
2022/07/27 12:37:55;;;;;;;0.70;0.13;;;24.30;99.90;;;;;;4991777;28;20449;-69
2022/07/27 12:40:23;;;;;;;0.70;0.20;;;24.20;99.90;;;;;;4993206;28;20580;-69
2022/07/27 12:42:56;;;;;;;0.70;0.20;;;24.00;99.90;;;;;;4993215;28;20493;-68
2022/07/27 12:45:30;;;;;;;0.70;0.20;;;24.00;99.90;;;;;;4990901;28;21025;-69
2022/07/27 12:48:08;;;;;;;0.70;0.20;;;;;;;;;;4992969;28;20484;-68
2022/07/27 12:50:37;;;;;;;0.70;0.10;;;24.00;99.90;;;;;;4993707;28;20445;-69
2022/07/27 12:53:05;;;;;;;0.70;0.10;;;24.10;99.90;;;;;;4993408;28;20557;-68
2022/07/27 12:55:33;;;;;;;0.70;0.20;;;24.10;99.90;;;;;;4992198;28;20464;-68
2022/07/27 12:58:01;;;;;;;0.70;0.10;;;24.10;99.90;;;;;;4992846;28;20459;-69
2022/07/27 13:00:30;;;;;;;0.70;0.20;;;24.20;99.90;;;;;;4993057;28;20970;-68
2022/07/27 13:03:02;;;;;;;0.70;0.20;;;24.30;99.90;;;;;;4993169;28;20457;-68
2022/07/27 13:05:31;;;;;;;0.70;0.10;;;24.30;99.90;;;;;;4993282;28;20949;-70
2022/07/27 13:07:59;;;;;;;0.70;0.10;;;24.40;99.90;;;;;;4992427;28;20477;-70
2022/07/27 13:10:27;;;;;;;0.70;0.10;;;24.60;99.90;;;;;;4993358;28;20447;-67
2022/07/27 13:12:55;;;;;;;0.90;0.60;;;25.00;99.90;;;;;;4993475;28;20529;-70
2022/07/27 13:15:23;;;;;;;0.70;0.10;;;25.00;99.90;;;;;;4992960;28;20822;-69
2022/07/27 13:17:53;;;;;;;0.70;0.20;;;25.10;99.90;;;;;;4993066;28;20493;-67
2022/07/27 13:20:21;;;;;;;0.70;0.10;;;25.30;99.90;;;;;;4992472;28;20937;-69
2022/07/27 13:22:49;;;;;;;0.70;0.10;;;25.40;99.90;;;;;;4993061;28;20461;-68
2022/07/27 13:25:17;;;;;;;0.70;0.20;;;25.30;99.90;;;;;;4995429;28;20815;-68
2022/07/27 13:27:46;;;;;;;0.70;0.10;;;25.40;99.90;;;;;;4996241;28;20523;-70